aviador You're here:

YBBN Decoded Metar

BRISBANE in AUSTRALIA
Report Time2017-03-23 23:30:00
UTC Time2017-03-24 00:04:22
Flight Rules vfr VFR
Wind130° at 06 kt
W.Decomp.*RWY 14: 5.6 kt HW 2.2 kt LCW
RWY 19: 2.0 kt HW 5.7 kt LCW
W.Rank130° ranks 10
Current wind is below 130° avg. (8.2)
Visibility9999 m
Phenomena:Light Shower Rain
Clouds:Scattered 021 Hf
Expected CloudBase > 800 ft AGL from Temp-Dew spread
CeilingNone
Temp25°C (ISA +10)
Dew Point23°C (89% RH)
QNH1016 hPa
Density Alt1,444 ft
Elevation16 ft
Report Wrong Elevation
Raw Report
METAR YBBN 232330Z 13006KT 9999 -SHRA SCT021 25/23 Q1016 NOSIG=

Extra information for YBBN:More info

Metar Taf Metar & Taf Last 4 Metars F.Rules Stats Wind Profile Meteogram Temp Stats Airport Information Weather charts Add Link Nearby VenuesMetar ALERT Operation Metar Decoded Social comments